Time;durP1;ratioP1;P1;durP2;ratioP2;P2;SDS_P1;SDS_P2;PMS_P1;PMS_P2;Temp;Humidity;BMP_temperature;BMP_pressure;BME280_temperature;BME280_humidity;BME280_pressure;Samples;Min_cycle;Max_cycle;Signal;HPM_P1;HPM_P2
2021/07/29 00:00:15;;;;;;;3.03;2.00;;;20.90;63.60;;;;;;1490330;39;20395;-66
2021/07/29 00:01:36;;;;;;;3.90;2.60;;;20.90;63.70;;;;;;1488551;39;20086;-66
2021/07/29 00:02:57;;;;;;;2.38;2.17;;;21.00;63.90;;;;;;1491650;39;20092;-66
2021/07/29 00:04:18;;;;;;;3.95;2.35;;;21.00;64.00;;;;;;1492037;39;20023;-66
2021/07/29 00:05:39;;;;;;;2.85;2.53;;;20.90;64.00;;;;;;1490191;39;20031;-66
2021/07/29 00:07:00;;;;;;;3.50;2.30;;;20.90;64.10;;;;;;1492106;39;20031;-66
2021/07/29 00:08:21;;;;;;;2.63;2.40;;;20.90;64.30;;;;;;1489192;39;20020;-66
2021/07/29 00:09:45;;;;;;;2.30;2.15;;;20.90;64.30;;;;;;1478231;40;20410;-66
2021/07/29 00:11:06;;;;;;;2.30;2.10;;;20.90;64.50;;;;;;1484445;40;20072;-66
2021/07/29 00:12:27;;;;;;;2.60;2.20;;;20.90;64.20;;;;;;1483536;40;20243;-66
2021/07/29 00:13:50;;;;;;;2.85;2.22;;;20.90;64.20;;;;;;1484935;40;20071;-66
2021/07/29 00:15:14;;;;;;;2.33;2.13;;;20.90;64.30;;;;;;1486167;40;20028;-66
2021/07/29 00:16:43;;;;;;;2.63;2.30;;;20.90;64.50;;;;;;1486080;40;20042;-66
2021/07/29 00:19:25;;;;;;;2.35;2.00;;;20.90;63.90;;;;;;1486107;40;20036;-66
2021/07/29 00:20:46;;;;;;;2.60;2.40;;;20.90;63.90;;;;;;1485601;40;20039;-66
2021/07/29 00:22:07;;;;;;;2.88;2.30;;;20.90;64.00;;;;;;1484732;40;20025;-66
2021/07/29 00:23:27;;;;;;;2.60;2.17;;;20.90;63.90;;;;;;1486676;39;20396;-66
2021/07/29 00:24:48;;;;;;;3.38;2.10;;;20.80;64.10;;;;;;1485025;40;20044;-66
2021/07/29 00:26:10;;;;;;;2.75;2.15;;;20.90;64.30;;;;;;1485686;40;20043;-66
2021/07/29 00:27:34;;;;;;;3.10;2.33;;;20.80;64.20;;;;;;1485925;39;20036;-66
2021/07/29 00:28:55;;;;;;;4.70;2.75;;;20.80;64.20;;;;;;1486022;39;20055;-66
2021/07/29 00:30:18;;;;;;;5.32;2.53;;;20.80;64.00;;;;;;1485869;40;20063;-66
2021/07/29 00:31:39;;;;;;;2.58;2.30;;;20.80;64.10;;;;;;1485708;40;20032;-66
2021/07/29 00:32:59;;;;;;;2.38;2.17;;;20.80;64.20;;;;;;1486755;40;20276;-66
2021/07/29 00:34:20;;;;;;;2.40;2.20;;;20.80;64.40;;;;;;1486461;40;20246;-66
2021/07/29 00:35:41;;;;;;;3.00;2.30;;;20.80;64.50;;;;;;1485583;39;20021;-66
2021/07/29 00:37:02;;;;;;;4.15;2.38;;;20.80;64.60;;;;;;1484720;39;20534;-66
2021/07/29 00:38:23;;;;;;;3.45;2.53;;;20.80;64.50;;;;;;1485445;40;20106;-66
2021/07/29 00:39:44;;;;;;;2.75;2.40;;;20.70;64.50;;;;;;1486020;40;20035;-66
2021/07/29 00:41:05;;;;;;;1.98;1.88;;;20.70;64.60;;;;;;1485380;40;20367;-68
2021/07/29 00:42:26;;;;;;;3.53;2.40;;;20.70;64.70;;;;;;1485220;40;20032;-66
2021/07/29 00:43:47;;;;;;;4.05;2.30;;;20.70;64.90;;;;;;1485094;40;20113;-66
2021/07/29 00:45:09;;;;;;;2.42;2.22;;;20.70;64.80;;;;;;1487359;40;20031;-66
2021/07/29 00:46:33;;;;;;;2.97;2.30;;;20.70;65.10;;;;;;1486133;40;20035;-66
2021/07/29 00:47:54;;;;;;;3.42;2.42;;;20.70;65.50;;;;;;1483108;40;20043;-66
2021/07/29 00:49:15;;;;;;;2.90;2.50;;;20.70;65.20;;;;;;1485197;40;20076;-66
2021/07/29 00:50:37;;;;;;;3.90;2.40;;;20.70;65.40;;;;;;1485418;39;20016;-66
2021/07/29 00:51:57;;;;;;;2.78;2.53;;;20.60;65.60;;;;;;1484982;40;20041;-67
2021/07/29 00:53:19;;;;;;;3.22;2.00;;;20.60;65.70;;;;;;1485722;40;20082;-66
2021/07/29 00:54:41;;;;;;;3.38;2.60;;;20.70;65.50;;;;;;1485076;40;20257;-66
2021/07/29 00:56:02;;;;;;;2.53;2.33;;;20.60;65.40;;;;;;1487938;39;20025;-66
2021/07/29 00:57:23;;;;;;;3.97;2.75;;;20.60;65.40;;;;;;1487966;39;20068;-66
2021/07/29 00:58:44;;;;;;;3.95;2.38;;;20.60;65.40;;;;;;1486399;40;20038;-66
2021/07/29 01:00:05;;;;;;;2.35;1.95;;;20.60;65.40;;;;;;1486915;39;20024;-66
2021/07/29 01:01:26;;;;;;;4.32;2.20;;;20.60;65.50;;;;;;1487209;40;20035;-67
2021/07/29 01:02:47;;;;;;;2.70;2.22;;;20.60;65.70;;;;;;1486444;40;20072;-66
2021/07/29 01:04:08;;;;;;;4.57;2.28;;;20.60;65.70;;;;;;1485286;40;20024;-66
2021/07/29 01:05:29;;;;;;;2.53;2.15;;;20.50;65.60;;;;;;1485239;40;20040;-67
2021/07/29 01:06:50;;;;;;;5.13;2.28;;;20.60;66.30;;;;;;1486858;39;20050;-66
2021/07/29 01:08:11;;;;;;;3.10;2.33;;;20.50;65.60;;;;;;1485571;40;20025;-67
2021/07/29 01:09:32;;;;;;;2.55;2.05;;;20.50;65.60;;;;;;1486996;39;20032;-66
2021/07/29 01:10:52;;;;;;;2.80;2.05;;;20.50;65.70;;;;;;1487291;40;20032;-67
2021/07/29 01:12:13;;;;;;;2.15;1.73;;;20.50;65.80;;;;;;1488058;39;20024;-67
2021/07/29 01:13:34;;;;;;;3.20;2.00;;;20.50;65.90;;;;;;1489619;39;20031;-66
2021/07/29 01:14:55;;;;;;;3.08;1.92;;;20.50;65.90;;;;;;1491703;39;20136;-67
2021/07/29 01:16:16;;;;;;;2.95;2.00;;;20.40;65.80;;;;;;1489924;39;20031;-66
2021/07/29 01:17:37;;;;;;;2.33;2.13;;;20.50;65.90;;;;;;1489533;39;20040;-67
2021/07/29 01:18:59;;;;;;;3.60;2.30;;;20.50;66.00;;;;;;1489446;39;20054;-66
2021/07/29 01:20:22;;;;;;;2.60;2.40;;;20.40;66.10;;;;;;1489746;39;20040;-66
2021/07/29 01:21:42;;;;;;;2.80;2.50;;;20.40;66.20;;;;;;1489349;39;20422;-66
2021/07/29 01:23:03;;;;;;;2.60;2.40;;;20.40;66.20;;;;;;1489322;39;20028;-66
2021/07/29 01:24:26;;;;;;;3.63;2.13;;;20.40;66.30;;;;;;1489735;39;20050;-66
2021/07/29 01:25:47;;;;;;;2.75;2.17;;;20.40;66.50;;;;;;1489430;39;20366;-67
2021/07/29 01:27:08;;;;;;;2.55;2.20;;;20.40;66.40;;;;;;1489827;39;20087;-67
2021/07/29 01:28:29;;;;;;;2.83;2.15;;;20.40;66.40;;;;;;1489545;39;20285;-66
2021/07/29 01:29:50;;;;;;;2.30;2.03;;;20.30;66.30;;;;;;1488621;39;20039;-66
2021/07/29 01:31:11;;;;;;;2.92;2.53;;;20.40;66.30;;;;;;1490943;39;20028;-67
2021/07/29 01:32:32;;;;;;;4.03;2.53;;;20.30;66.30;;;;;;1491458;39;20023;-66
2021/07/29 01:33:54;;;;;;;3.45;2.60;;;20.40;66.40;;;;;;1487068;39;20317;-66
2021/07/29 01:35:15;;;;;;;2.40;2.00;;;20.30;66.30;;;;;;1487953;39;20073;-67
2021/07/29 01:36:36;;;;;;;5.28;2.38;;;20.30;66.30;;;;;;1487602;39;20250;-66
2021/07/29 01:37:57;;;;;;;2.20;2.00;;;20.30;66.30;;;;;;1492095;39;20032;-66
2021/07/29 01:39:18;;;;;;;2.40;2.05;;;20.30;66.30;;;;;;1492168;39;20271;-66
2021/07/29 01:40:38;;;;;;;5.43;2.20;;;20.30;66.40;;;;;;1489704;39;20040;-67
2021/07/29 01:41:59;;;;;;;2.40;2.20;;;20.30;66.40;;;;;;1491681;39;20397;-67
2021/07/29 01:43:20;;;;;;;3.83;2.00;;;20.30;66.40;;;;;;1489997;39;20023;-66
2021/07/29 01:44:41;;;;;;;2.60;1.88;;;20.30;66.40;;;;;;1490271;39;20082;-68
2021/07/29 01:46:02;;;;;;;2.35;2.10;;;20.30;66.40;;;;;;1489898;39;20089;-66
2021/07/29 01:47:23;;;;;;;3.55;2.25;;;20.30;66.40;;;;;;1489056;39;20020;-66
2021/07/29 01:48:44;;;;;;;3.33;2.30;;;20.20;66.40;;;;;;1489520;39;20028;-66
2021/07/29 01:50:06;;;;;;;3.70;2.35;;;20.30;66.50;;;;;;1491103;39;20024;-66
2021/07/29 01:51:27;;;;;;;2.92;2.47;;;20.30;66.60;;;;;;1488215;39;20035;-66
2021/07/29 01:52:47;;;;;;;2.85;2.10;;;20.20;66.40;;;;;;1489894;39;20032;-66
2021/07/29 01:54:08;;;;;;;4.15;2.45;;;20.20;66.40;;;;;;1491318;39;20031;-66
2021/07/29 01:55:29;;;;;;;3.78;2.40;;;20.20;66.30;;;;;;1489471;39;20040;-67
2021/07/29 01:56:50;;;;;;;2.38;2.17;;;20.20;66.40;;;;;;1492232;39;20046;-66
2021/07/29 01:58:12;;;;;;;2.22;1.95;;;20.20;66.50;;;;;;1490282;39;20046;-66
2021/07/29 01:59:35;;;;;;;2.88;2.08;;;20.20;66.40;;;;;;1489671;39;20052;-66
2021/07/29 02:00:56;;;;;;;4.03;2.45;;;20.20;66.50;;;;;;1490156;39;20027;-66
2021/07/29 02:02:17;;;;;;;5.97;2.15;;;20.20;66.60;;;;;;1490233;39;20056;-66
2021/07/29 02:03:38;;;;;;;3.33;2.30;;;20.10;66.50;;;;;;1490906;39;20038;-67
2021/07/29 02:04:58;;;;;;;2.40;2.20;;;20.10;66.50;;;;;;1486364;40;20046;-66
2021/07/29 02:06:19;;;;;;;5.57;2.60;;;20.10;66.50;;;;;;1488471;39;20152;-66
2021/07/29 02:07:40;;;;;;;3.55;2.03;;;20.10;66.60;;;;;;1489415;39;20040;-66
2021/07/29 02:09:01;;;;;;;2.40;2.10;;;20.10;66.70;;;;;;1489854;39;20360;-66
2021/07/29 02:10:22;;;;;;;2.78;1.98;;;20.10;66.70;;;;;;1486844;39;20276;-66
2021/07/29 02:11:49;;;;;;;2.50;2.30;;;20.10;66.60;;;;;;1489947;39;20039;-66
2021/07/29 02:13:10;;;;;;;5.07;1.98;;;20.10;66.70;;;;;;1492154;39;20136;-66
2021/07/29 02:14:31;;;;;;;3.10;2.08;;;20.10;66.70;;;;;;1490408;39;21797;-66
2021/07/29 02:15:52;;;;;;;2.63;2.22;;;20.10;66.70;;;;;;1490559;39;20059;-66
2021/07/29 02:17:13;;;;;;;3.25;1.92;;;20.00;66.70;;;;;;1490774;39;20024;-66
2021/07/29 02:18:33;;;;;;;3.20;2.25;;;20.00;66.80;;;;;;1491047;39;20059;-66
2021/07/29 02:19:54;;;;;;;2.28;2.08;;;20.00;66.70;;;;;;1491685;39;20042;-67
2021/07/29 02:21:15;;;;;;;2.60;1.85;;;20.00;66.70;;;;;;1493833;39;20026;-67
2021/07/29 02:22:37;;;;;;;2.78;2.10;;;20.00;66.70;;;;;;1492451;39;20036;-66
2021/07/29 02:23:57;;;;;;;4.22;2.40;;;20.00;66.90;;;;;;1490444;39;20253;-67
2021/07/29 02:25:18;;;;;;;3.75;1.90;;;20.00;66.90;;;;;;1487365;39;20027;-67
2021/07/29 02:26:39;;;;;;;2.95;2.08;;;20.00;66.90;;;;;;1487037;39;20356;-66
2021/07/29 02:28:00;;;;;;;3.38;1.98;;;20.00;66.90;;;;;;1490922;39;20119;-67
2021/07/29 02:29:21;;;;;;;2.03;1.90;;;20.00;66.90;;;;;;1491444;39;20032;-67
2021/07/29 02:30:42;;;;;;;3.58;1.98;;;20.00;66.90;;;;;;1489399;39;20035;-66
2021/07/29 02:32:03;;;;;;;4.22;1.90;;;20.00;67.00;;;;;;1490703;39;20035;-66
2021/07/29 02:33:24;;;;;;;5.18;2.38;;;20.00;67.00;;;;;;1491589;39;20114;-66
2021/07/29 02:34:45;;;;;;;3.60;2.90;;;20.00;67.00;;;;;;1492309;39;20552;-66
2021/07/29 02:36:06;;;;;;;4.25;2.25;;;20.00;67.10;;;;;;1485872;39;20381;-66
2021/07/29 02:37:27;;;;;;;3.63;1.95;;;20.00;67.00;;;;;;1490019;39;20059;-66
2021/07/29 02:38:48;;;;;;;4.82;2.50;;;20.00;66.90;;;;;;1489586;39;20128;-66
2021/07/29 02:40:09;;;;;;;5.85;2.50;;;20.00;66.90;;;;;;1490134;39;20032;-66
2021/07/29 02:41:31;;;;;;;3.53;2.28;;;19.90;66.90;;;;;;1490210;39;20026;-66
2021/07/29 02:42:52;;;;;;;2.13;1.85;;;19.90;66.90;;;;;;1489649;39;20028;-66
2021/07/29 02:44:15;;;;;;;3.60;2.25;;;19.90;66.90;;;;;;1491562;39;20096;-66
2021/07/29 02:45:35;;;;;;;2.10;1.88;;;19.90;67.00;;;;;;1491633;39;20027;-67
2021/07/29 02:46:56;;;;;;;5.85;2.60;;;19.90;67.10;;;;;;1491287;39;20043;-66
2021/07/29 02:48:17;;;;;;;2.90;2.42;;;19.90;67.20;;;;;;1492084;39;20016;-66
2021/07/29 02:49:38;;;;;;;5.28;2.30;;;19.90;67.10;;;;;;1491851;39;20040;-66
2021/07/29 02:50:59;;;;;;;3.25;2.38;;;19.90;67.10;;;;;;1489596;39;20038;-66
2021/07/29 02:52:20;;;;;;;4.43;2.28;;;19.90;67.10;;;;;;1491949;39;20016;-66
2021/07/29 02:53:41;;;;;;;2.85;2.40;;;19.90;67.10;;;;;;1490317;39;20168;-66
2021/07/29 02:55:02;;;;;;;3.15;2.45;;;19.90;67.10;;;;;;1490554;39;20047;-66
2021/07/29 02:56:23;;;;;;;5.40;2.28;;;19.90;67.20;;;;;;1491238;39;20032;-66
2021/07/29 02:57:44;;;;;;;4.63;2.22;;;19.90;67.30;;;;;;1490804;39;20064;-66
2021/07/29 02:59:04;;;;;;;2.28;2.03;;;19.90;67.20;;;;;;1490932;39;20114;-66
2021/07/29 03:00:25;;;;;;;3.03;2.45;;;19.90;67.30;;;;;;1491258;39;20037;-66
2021/07/29 03:01:47;;;;;;;3.78;2.38;;;19.80;67.30;;;;;;1490558;39;20032;-66
2021/07/29 03:03:08;;;;;;;5.00;2.33;;;19.90;67.40;;;;;;1490935;39;20361;-66
2021/07/29 03:04:29;;;;;;;4.93;2.40;;;19.90;67.40;;;;;;1486314;39;20241;-66
2021/07/29 03:05:50;;;;;;;2.38;2.17;;;19.90;67.40;;;;;;1488838;39;20086;-66
2021/07/29 03:07:11;;;;;;;3.58;2.30;;;19.90;67.40;;;;;;1492579;39;20027;-66
2021/07/29 03:08:31;;;;;;;2.75;2.40;;;19.90;67.50;;;;;;1490152;39;20415;-66
2021/07/29 03:09:53;;;;;;;2.47;2.17;;;19.90;67.50;;;;;;1488969;39;20035;-67
2021/07/29 03:11:13;;;;;;;3.30;2.30;;;19.90;67.60;;;;;;1488758;39;20020;-67
2021/07/29 03:12:34;;;;;;;2.97;2.40;;;19.90;67.70;;;;;;1489588;39;20125;-66
2021/07/29 03:13:55;;;;;;;4.07;2.30;;;19.90;67.80;;;;;;1493429;39;20024;-67
2021/07/29 03:15:16;;;;;;;3.20;2.13;;;19.90;67.70;;;;;;1485822;39;20145;-67
2021/07/29 03:16:37;;;;;;;3.67;2.90;;;19.90;67.80;;;;;;1488556;39;20042;-67
2021/07/29 03:17:58;;;;;;;3.63;2.15;;;19.80;67.70;;;;;;1492552;39;20039;-67
2021/07/29 03:19:19;;;;;;;2.88;2.03;;;19.90;67.80;;;;;;1490941;39;20224;-67
2021/07/29 03:20:41;;;;;;;6.03;2.65;;;19.90;67.80;;;;;;1491700;39;20082;-66
2021/07/29 03:22:02;;;;;;;3.08;2.22;;;19.90;67.80;;;;;;1491092;39;20042;-66
2021/07/29 03:23:24;;;;;;;4.30;2.30;;;19.90;67.80;;;;;;1492297;39;20090;-66
2021/07/29 03:24:45;;;;;;;3.70;2.30;;;19.90;67.70;;;;;;1489982;39;20035;-66
2021/07/29 03:26:06;;;;;;;2.47;1.92;;;19.90;67.70;;;;;;1490111;39;20348;-66
2021/07/29 03:27:27;;;;;;;2.97;2.10;;;19.90;67.70;;;;;;1491527;39;20039;-66
2021/07/29 03:28:48;;;;;;;4.03;1.98;;;19.90;67.60;;;;;;1488910;39;20039;-65
2021/07/29 03:30:09;;;;;;;5.35;3.08;;;19.90;67.70;;;;;;1491032;39;20031;-66
2021/07/29 03:31:30;;;;;;;3.50;2.35;;;19.90;67.80;;;;;;1488968;39;20028;-66
2021/07/29 03:32:51;;;;;;;3.25;2.13;;;19.90;67.70;;;;;;1490744;39;20036;-66
2021/07/29 03:34:12;;;;;;;5.70;2.70;;;19.90;67.70;;;;;;1487084;40;20125;-66
2021/07/29 03:35:33;;;;;;;2.80;2.15;;;19.90;67.70;;;;;;1486883;40;20039;-66
2021/07/29 03:36:54;;;;;;;6.38;2.45;;;19.90;67.60;;;;;;1489267;39;20348;-66
2021/07/29 03:38:15;;;;;;;4.43;2.53;;;19.90;67.70;;;;;;1490085;39;20108;-65
2021/07/29 03:39:36;;;;;;;2.70;2.17;;;19.90;67.70;;;;;;1489664;39;20024;-65
2021/07/29 03:40:57;;;;;;;4.00;1.90;;;19.90;67.70;;;;;;1490437;39;20036;-66
2021/07/29 03:42:22;;;;;;;4.25;2.17;;;19.90;67.70;;;;;;1487137;39;20024;-66
2021/07/29 03:43:43;;;;;;;5.93;2.38;;;19.90;67.70;;;;;;1490021;39;20550;-65
2021/07/29 03:45:04;;;;;;;2.67;2.10;;;19.90;67.60;;;;;;1492165;39;20020;-66
2021/07/29 03:46:25;;;;;;;2.95;2.35;;;19.90;67.60;;;;;;1491436;39;20085;-65
2021/07/29 03:47:46;;;;;;;2.13;1.90;;;19.90;67.50;;;;;;1488522;39;20145;-65
2021/07/29 03:49:07;;;;;;;3.33;2.13;;;19.90;67.50;;;;;;1490978;39;20136;-65
2021/07/29 03:50:29;;;;;;;5.05;2.25;;;19.90;67.50;;;;;;1489192;39;20037;-66
2021/07/29 03:51:50;;;;;;;2.13;1.92;;;19.90;67.30;;;;;;1485540;40;20254;-66
2021/07/29 03:53:11;;;;;;;3.13;2.53;;;19.90;67.20;;;;;;1486697;40;20028;-66
2021/07/29 03:54:33;;;;;;;2.85;2.10;;;19.90;67.10;;;;;;1488390;39;20088;-66
2021/07/29 03:55:54;;;;;;;2.30;1.95;;;19.90;67.00;;;;;;1490006;39;20024;-65
2021/07/29 03:57:14;;;;;;;5.22;2.10;;;19.90;67.00;;;;;;1490178;39;20027;-66
2021/07/29 03:58:36;;;;;;;3.60;2.20;;;19.90;66.80;;;;;;1488873;39;20369;-65
2021/07/29 03:59:57;;;;;;;3.72;2.20;;;19.90;66.60;;;;;;1490595;39;20032;-66
2021/07/29 04:01:18;;;;;;;2.75;1.95;;;19.90;66.60;;;;;;1488787;39;20339;-66
2021/07/29 04:02:39;;;;;;;2.67;1.77;;;19.90;66.60;;;;;;1488547;39;20036;-66
2021/07/29 04:04:00;;;;;;;2.40;2.10;;;19.90;66.50;;;;;;1488403;39;20440;-66
2021/07/29 04:05:21;;;;;;;3.15;1.70;;;19.90;66.40;;;;;;1486767;39;20040;-66
2021/07/29 04:06:42;;;;;;;3.10;2.03;;;19.90;66.30;;;;;;1491650;39;20331;-66
2021/07/29 04:08:05;;;;;;;4.47;2.13;;;19.80;66.20;;;;;;1492085;39;20032;-65
2021/07/29 04:09:25;;;;;;;2.05;1.88;;;19.80;66.30;;;;;;1488526;39;20030;-65
2021/07/29 04:10:46;;;;;;;2.80;1.95;;;19.80;66.30;;;;;;1492765;39;20079;-66
2021/07/29 04:12:07;;;;;;;7.35;1.80;;;19.80;66.20;;;;;;1489477;39;20463;-66
2021/07/29 04:13:28;;;;;;;5.13;2.10;;;19.80;66.20;;;;;;1488639;39;20035;-65
2021/07/29 04:14:49;;;;;;;3.80;1.98;;;19.90;66.30;;;;;;1490960;39;20093;-65
2021/07/29 04:16:11;;;;;;;4.90;1.92;;;19.80;66.10;;;;;;1479742;39;20040;-65
2021/07/29 04:17:32;;;;;;;4.35;2.00;;;19.80;66.10;;;;;;1483795;40;20107;-65
2021/07/29 04:18:53;;;;;;;4.75;1.90;;;19.80;66.10;;;;;;1489032;39;20076;-66
2021/07/29 04:20:13;;;;;;;2.83;1.77;;;19.90;66.10;;;;;;1490849;39;20030;-66
2021/07/29 04:21:34;;;;;;;3.65;1.90;;;19.80;65.90;;;;;;1490689;39;20083;-66
2021/07/29 04:22:55;;;;;;;4.30;2.22;;;19.90;65.70;;;;;;1491180;39;20027;-66
2021/07/29 04:24:17;;;;;;;3.40;1.73;;;19.80;65.70;;;;;;1488780;39;20036;-66
2021/07/29 04:25:38;;;;;;;4.05;2.15;;;19.80;65.70;;;;;;1491629;39;20036;-66
2021/07/29 04:27:01;;;;;;;4.13;2.00;;;19.80;65.60;;;;;;1486122;39;20125;-65
2021/07/29 04:28:22;;;;;;;3.25;1.85;;;19.80;65.80;;;;;;1488081;39;20024;-65
2021/07/29 04:29:43;;;;;;;4.55;1.90;;;19.80;65.80;;;;;;1486894;39;20040;-65
2021/07/29 04:31:03;;;;;;;4.88;1.73;;;19.80;65.70;;;;;;1485863;40;20024;-66
2021/07/29 04:32:24;;;;;;;2.83;2.15;;;19.80;65.60;;;;;;1489418;39;20024;-65
2021/07/29 04:33:45;;;;;;;3.03;1.90;;;19.80;65.50;;;;;;1489697;39;20314;-65
2021/07/29 04:35:06;;;;;;;3.20;1.75;;;19.80;65.50;;;;;;1489807;39;20525;-65
2021/07/29 04:36:27;;;;;;;5.15;2.20;;;19.80;65.50;;;;;;1491176;39;20258;-66
2021/07/29 04:37:48;;;;;;;5.50;2.20;;;19.80;65.60;;;;;;1491407;39;20036;-66
2021/07/29 04:39:10;;;;;;;2.33;2.00;;;19.80;65.50;;;;;;1487216;39;20040;-66
2021/07/29 04:40:31;;;;;;;3.72;1.70;;;19.80;65.40;;;;;;1488238;39;20039;-66
2021/07/29 04:41:52;;;;;;;3.53;1.85;;;19.80;65.30;;;;;;1488740;39;20587;-66
2021/07/29 04:43:13;;;;;;;4.25;1.83;;;19.80;65.30;;;;;;1487319;39;20101;-65
2021/07/29 04:44:34;;;;;;;3.53;1.58;;;19.80;65.30;;;;;;1490390;39;20039;-66
2021/07/29 04:45:55;;;;;;;2.42;1.75;;;19.80;65.30;;;;;;1488576;39;20113;-66
2021/07/29 04:47:16;;;;;;;6.20;2.15;;;19.80;65.30;;;;;;1487879;40;20016;-66
2021/07/29 04:48:37;;;;;;;5.22;2.00;;;19.80;65.30;;;;;;1488350;39;20027;-66
2021/07/29 04:49:58;;;;;;;2.08;1.55;;;19.80;65.30;;;;;;1488618;39;20035;-66
2021/07/29 04:51:19;;;;;;;3.30;1.90;;;19.80;65.90;;;;;;1489703;39;20023;-65
2021/07/29 04:52:40;;;;;;;1.83;1.67;;;19.80;65.20;;;;;;1489690;39;20039;-65
2021/07/29 04:54:01;;;;;;;2.38;1.60;;;19.80;65.10;;;;;;1488082;39;20028;-65
2021/07/29 04:55:22;;;;;;;5.78;2.15;;;19.80;65.20;;;;;;1489537;39;20352;-66
2021/07/29 04:56:43;;;;;;;2.97;1.70;;;19.80;65.30;;;;;;1487565;39;20024;-66
2021/07/29 04:58:04;;;;;;;4.05;2.08;;;19.80;65.30;;;;;;1490975;39;20035;-66
2021/07/29 04:59:25;;;;;;;1.95;1.63;;;19.80;65.20;;;;;;1490259;39;20020;-65
2021/07/29 05:00:46;;;;;;;3.80;1.50;;;19.80;65.10;;;;;;1489419;39;20363;-66
2021/07/29 05:02:07;;;;;;;2.70;1.60;;;19.80;65.00;;;;;;1488989;39;20124;-65
2021/07/29 05:03:28;;;;;;;4.07;1.70;;;19.80;64.90;;;;;;1488631;39;20034;-65
2021/07/29 05:04:49;;;;;;;2.97;1.80;;;19.90;65.00;;;;;;1489849;39;20131;-66
2021/07/29 05:06:10;;;;;;;3.85;1.67;;;19.80;64.90;;;;;;1492165;39;20035;-65
2021/07/29 05:07:30;;;;;;;3.38;1.88;;;19.80;64.80;;;;;;1491284;39;20359;-65
2021/07/29 05:08:51;;;;;;;4.57;2.05;;;19.80;65.40;;;;;;1490076;39;20036;-65
2021/07/29 05:10:12;;;;;;;3.40;1.70;;;19.90;64.80;;;;;;1489232;39;20146;-66
2021/07/29 05:11:33;;;;;;;5.28;1.77;;;19.80;64.90;;;;;;1490119;39;20110;-65
2021/07/29 05:12:55;;;;;;;4.35;1.65;;;19.90;64.90;;;;;;1491482;39;20100;-65
2021/07/29 05:14:16;;;;;;;5.35;1.52;;;19.80;64.80;;;;;;1492042;39;20047;-66
2021/07/29 05:15:37;;;;;;;4.63;1.40;;;19.80;64.70;;;;;;1490021;39;20036;-65
2021/07/29 05:17:02;;;;;;;3.20;2.00;;;19.80;64.80;;;;;;1490061;39;20307;-65
2021/07/29 05:18:23;;;;;;;2.67;1.60;;;19.80;64.80;;;;;;1489094;39;20017;-65
2021/07/29 05:19:44;;;;;;;3.53;2.00;;;19.90;64.80;;;;;;1488979;39;20129;-65
2021/07/29 05:21:07;;;;;;;3.55;1.80;;;19.90;64.60;;;;;;1489553;39;20047;-65
2021/07/29 05:22:28;;;;;;;3.17;2.10;;;19.90;64.60;;;;;;1488503;39;20296;-65
2021/07/29 05:23:48;;;;;;;3.30;1.60;;;19.80;64.60;;;;;;1489703;39;20039;-66
2021/07/29 05:25:09;;;;;;;3.00;2.05;;;19.90;64.70;;;;;;1490234;39;20031;-66
2021/07/29 05:26:30;;;;;;;4.25;1.70;;;19.80;65.30;;;;;;1491071;39;20067;-66
2021/07/29 05:27:52;;;;;;;3.33;1.50;;;19.80;64.60;;;;;;1489273;39;20036;-65
2021/07/29 05:29:13;;;;;;;3.00;2.13;;;19.80;64.60;;;;;;1490264;39;20065;-66
2021/07/29 05:30:37;;;;;;;2.45;1.73;;;19.80;64.60;;;;;;1491171;39;20019;-65
2021/07/29 05:31:58;;;;;;;2.63;1.83;;;19.80;64.60;;;;;;1491356;39;20101;-65
2021/07/29 05:33:19;;;;;;;2.85;1.98;;;19.80;64.60;;;;;;1491548;39;20303;-66
2021/07/29 05:34:40;;;;;;;9.35;1.70;;;19.80;64.60;;;;;;1489234;39;20307;-66
2021/07/29 05:36:01;;;;;;;3.50;1.88;;;19.80;64.70;;;;;;1490885;39;20048;-66
2021/07/29 05:37:22;;;;;;;3.63;1.52;;;19.80;64.70;;;;;;1490001;39;20024;-65
2021/07/29 05:38:43;;;;;;;6.18;1.98;;;19.80;64.70;;;;;;1489977;39;20031;-66
2021/07/29 05:40:06;;;;;;;5.88;1.88;;;19.80;64.60;;;;;;1488275;39;20044;-65
2021/07/29 05:41:27;;;;;;;6.70;1.88;;;19.80;64.60;;;;;;1488318;39;20031;-65
2021/07/29 05:42:48;;;;;;;4.40;1.70;;;19.80;64.60;;;;;;1488538;39;20086;-65
2021/07/29 05:44:11;;;;;;;2.20;1.52;;;19.80;64.60;;;;;;1490608;39;20016;-65
2021/07/29 05:45:33;;;;;;;5.97;1.60;;;19.80;64.60;;;;;;1486919;39;20028;-65
2021/07/29 05:46:54;;;;;;;3.38;1.75;;;19.80;64.50;;;;;;1491512;39;20043;-65
2021/07/29 05:48:15;;;;;;;2.95;1.80;;;19.80;64.50;;;;;;1492171;39;20413;-65
2021/07/29 05:49:36;;;;;;;3.65;1.60;;;19.80;64.60;;;;;;1490144;39;20035;-66
2021/07/29 05:50:57;;;;;;;3.30;1.50;;;19.80;64.60;;;;;;1489384;39;20032;-65
2021/07/29 05:52:17;;;;;;;4.88;2.30;;;19.80;64.60;;;;;;1486515;39;20023;-65
2021/07/29 05:53:38;;;;;;;4.75;1.95;;;19.80;64.60;;;;;;1485720;39;20125;-65
2021/07/29 05:54:59;;;;;;;3.70;1.67;;;19.80;64.70;;;;;;1490046;39;20047;-65
2021/07/29 05:56:20;;;;;;;3.97;2.25;;;19.80;64.80;;;;;;1489716;39;20371;-65
2021/07/29 05:57:41;;;;;;;3.75;2.13;;;19.80;64.80;;;;;;1491463;39;20050;-65
2021/07/29 05:59:02;;;;;;;6.63;2.20;;;19.80;64.80;;;;;;1491579;39;20031;-65
2021/07/29 06:00:23;;;;;;;3.45;1.60;;;19.80;64.80;;;;;;1491939;39;20085;-65
2021/07/29 06:01:44;;;;;;;3.58;1.63;;;19.80;64.90;;;;;;1489148;39;20036;-65
2021/07/29 06:03:06;;;;;;;3.80;2.03;;;19.80;64.90;;;;;;1491077;39;20046;-65
2021/07/29 06:04:27;;;;;;;1.98;1.67;;;19.80;64.70;;;;;;1488486;39;20479;-65
2021/07/29 06:05:49;;;;;;;5.68;1.90;;;19.80;64.70;;;;;;1491714;39;20132;-66
2021/07/29 06:07:10;;;;;;;5.32;2.25;;;19.80;64.70;;;;;;1483201;40;20027;-66
2021/07/29 06:08:31;;;;;;;3.78;2.03;;;19.80;64.60;;;;;;1488487;39;20020;-66
2021/07/29 06:09:52;;;;;;;3.60;1.80;;;19.80;64.50;;;;;;1492889;39;20039;-66
2021/07/29 06:11:13;;;;;;;6.38;2.25;;;19.80;64.50;;;;;;1491749;39;20060;-64
2021/07/29 06:12:34;;;;;;;5.10;2.22;;;19.80;64.50;;;;;;1491266;39;20032;-65
2021/07/29 06:13:55;;;;;;;3.85;1.77;;;19.80;64.50;;;;;;1491732;39;20028;-65
2021/07/29 06:15:16;;;;;;;2.60;1.52;;;19.80;64.40;;;;;;1487665;39;20068;-65
2021/07/29 06:16:37;;;;;;;4.43;1.75;;;19.90;64.50;;;;;;1489102;39;20367;-65
2021/07/29 06:18:00;;;;;;;5.25;1.65;;;19.90;64.50;;;;;;1491676;39;20080;-65
2021/07/29 06:19:31;;;;;;;4.00;1.98;;;19.90;64.30;;;;;;1490854;39;20337;-64
2021/07/29 06:20:52;;;;;;;5.53;2.10;;;19.90;64.10;;;;;;1491685;39;20068;-65
2021/07/29 06:22:12;;;;;;;4.93;1.80;;;19.90;63.90;;;;;;1490334;39;20036;-65
2021/07/29 06:23:33;;;;;;;4.13;1.60;;;19.90;63.80;;;;;;1489374;39;20034;-65
2021/07/29 06:24:54;;;;;;;1.83;1.42;;;19.90;63.90;;;;;;1488410;39;20033;-65
2021/07/29 06:26:15;;;;;;;3.05;1.70;;;19.90;64.10;;;;;;1489741;39;20067;-64
2021/07/29 06:27:37;;;;;;;5.07;1.95;;;19.90;64.00;;;;;;1488020;39;20028;-64
2021/07/29 06:28:58;;;;;;;2.17;1.60;;;19.90;64.00;;;;;;1486471;39;20365;-65
2021/07/29 06:30:19;;;;;;;3.50;1.55;;;19.90;64.00;;;;;;1487827;39;20109;-65
2021/07/29 06:31:40;;;;;;;3.08;1.45;;;19.90;64.00;;;;;;1490980;39;20040;-65
2021/07/29 06:33:01;;;;;;;6.07;1.52;;;20.00;64.00;;;;;;1491119;39;20312;-65
2021/07/29 06:34:21;;;;;;;4.97;1.73;;;20.00;64.00;;;;;;1492090;39;20114;-65
2021/07/29 06:35:42;;;;;;;6.10;2.13;;;20.00;63.90;;;;;;1489640;39;20477;-65
2021/07/29 06:37:04;;;;;;;6.88;1.60;;;20.00;63.90;;;;;;1491308;39;20031;-64
2021/07/29 06:38:25;;;;;;;3.88;1.50;;;20.00;63.60;;;;;;1490193;39;20415;-65
2021/07/29 06:39:45;;;;;;;3.10;1.58;;;20.10;63.60;;;;;;1491221;39;20031;-65
2021/07/29 06:41:07;;;;;;;2.88;1.55;;;20.00;63.60;;;;;;1489874;39;20027;-65
2021/07/29 06:42:28;;;;;;;3.90;1.85;;;20.00;63.60;;;;;;1488408;39;20052;-64
2021/07/29 06:43:49;;;;;;;5.30;1.80;;;20.10;63.70;;;;;;1489797;39;20047;-65
2021/07/29 06:45:10;;;;;;;3.95;2.08;;;20.10;63.50;;;;;;1488924;39;20017;-65
2021/07/29 06:46:34;;;;;;;3.25;1.50;;;20.10;63.50;;;;;;1486185;39;20035;-64
2021/07/29 06:47:55;;;;;;;5.47;1.60;;;20.10;63.50;;;;;;1490803;39;20035;-65
2021/07/29 06:49:16;;;;;;;2.45;1.30;;;20.20;63.70;;;;;;1491115;39;20125;-65
2021/07/29 06:50:37;;;;;;;4.28;1.27;;;20.20;63.50;;;;;;1489940;39;20371;-65
2021/07/29 06:51:58;;;;;;;2.88;1.35;;;20.20;63.30;;;;;;1491450;39;20036;-65
2021/07/29 06:53:19;;;;;;;3.72;1.50;;;20.30;63.10;;;;;;1486093;40;20023;-65
2021/07/29 06:54:40;;;;;;;4.50;1.90;;;20.30;63.00;;;;;;1489762;39;20028;-65
2021/07/29 06:56:02;;;;;;;5.07;1.58;;;20.30;63.00;;;;;;1489703;39;20034;-65
2021/07/29 06:57:23;;;;;;;4.93;1.40;;;20.30;62.80;;;;;;1492173;39;20462;-65
2021/07/29 06:58:43;;;;;;;8.30;1.63;;;20.40;62.60;;;;;;1489388;39;20031;-66
2021/07/29 07:00:05;;;;;;;3.53;1.48;;;20.40;62.60;;;;;;1491714;39;20124;-65
2021/07/29 07:01:26;;;;;;;3.15;1.50;;;20.40;62.30;;;;;;1489696;39;20026;-66
2021/07/29 07:02:47;;;;;;;3.08;1.17;;;20.50;62.10;;;;;;1490838;39;20341;-66
2021/07/29 07:04:08;;;;;;;5.38;1.70;;;20.50;61.90;;;;;;1490459;39;20555;-66